createdAt,value
2019-03-09T00:00:38.342Z,14.10
2019-03-09T00:03:09.590Z,14.77
2019-03-09T00:05:42.498Z,16.70
2019-03-09T00:08:15.518Z,17.27
2019-03-09T00:10:47.014Z,17.87
2019-03-09T00:13:18.353Z,23.20
2019-03-09T00:15:49.198Z,12.00
2019-03-09T00:18:20.310Z,15.37
2019-03-09T00:20:51.868Z,10.83
2019-03-09T00:23:27.696Z,16.77
2019-03-09T00:26:00.710Z,10.40
2019-03-09T00:28:51.567Z,14.73
2019-03-09T00:31:29.877Z,22.17
2019-03-09T00:34:00.943Z,16.13
2019-03-09T00:36:31.357Z,12.40
2019-03-09T00:39:04.367Z,11.93
2019-03-09T00:41:35.220Z,16.90
2019-03-09T00:44:11.356Z,18.53
2019-03-09T00:46:48.805Z,15.37
2019-03-09T00:49:19.653Z,13.67
2019-03-09T00:51:51.267Z,18.47
2019-03-09T00:54:24.656Z,15.40
2019-03-09T00:56:55.422Z,15.53
2019-03-09T00:59:27.015Z,12.83
2019-03-09T01:02:04.990Z,16.23
2019-03-09T01:04:37.001Z,14.43
2019-03-09T01:07:08.922Z,18.30
2019-03-09T01:09:41.265Z,16.60
2019-03-09T01:12:12.235Z,14.83
2019-03-09T01:14:45.014Z,17.73
2019-03-09T01:17:16.991Z,15.67
2019-03-09T01:19:47.544Z,12.20
2019-03-09T01:22:19.085Z,13.50
2019-03-09T01:24:50.806Z,21.53
2019-03-09T01:27:22.373Z,16.20
2019-03-09T01:29:59.427Z,17.30
2019-03-09T01:36:02.180Z,18.70
2019-03-09T01:39:06.873Z,20.10
2019-03-09T01:41:39.345Z,17.67
2019-03-09T01:44:10.428Z,16.63
2019-03-09T01:46:40.982Z,12.33
2019-03-09T01:49:11.677Z,12.60
2019-03-09T01:51:43.417Z,15.80
2019-03-09T01:54:16.094Z,16.93
2019-03-09T01:56:47.999Z,10.10
2019-03-09T01:59:18.801Z,13.40
2019-03-09T02:01:49.904Z,15.17
2019-03-09T02:04:21.528Z,12.40
2019-03-09T02:06:54.222Z,16.17
2019-03-09T02:09:49.522Z,12.93
2019-03-09T02:12:21.666Z,14.20
2019-03-09T02:14:52.556Z,17.00
2019-03-09T02:17:24.636Z,15.03
2019-03-09T02:19:55.950Z,14.50
2019-03-09T02:22:26.992Z,17.60
2019-03-09T02:24:58.494Z,21.83
2019-03-09T02:27:32.956Z,14.40
2019-03-09T02:30:07.629Z,19.53
2019-03-09T02:32:54.750Z,17.43
2019-03-09T02:35:40.714Z,21.03
2019-03-09T02:38:22.330Z,25.73
2019-03-09T02:40:53.331Z,19.67
2019-03-09T02:43:25.846Z,27.63
2019-03-09T02:45:57.409Z,24.07
2019-03-09T02:48:31.003Z,26.73
2019-03-09T02:51:02.039Z,23.47
2019-03-09T02:53:32.711Z,28.40
2019-03-09T02:56:04.037Z,29.27
2019-03-09T02:58:34.818Z,24.20
2019-03-09T03:01:10.782Z,24.30
2019-03-09T03:03:42.263Z,24.90
2019-03-09T03:06:15.694Z,31.40
2019-03-09T03:08:46.693Z,23.73
2019-03-09T03:11:18.425Z,25.83
2019-03-09T03:13:50.417Z,22.10
2019-03-09T03:16:25.325Z,26.10
2019-03-09T03:18:58.929Z,22.77
2019-03-09T03:21:31.295Z,24.00
2019-03-09T03:24:03.421Z,21.43
2019-03-09T03:26:34.852Z,22.00
2019-03-09T03:29:09.170Z,22.53
2019-03-09T03:31:42.674Z,21.30
2019-03-09T03:34:20.138Z,19.47
2019-03-09T03:36:52.252Z,16.43
2019-03-09T03:39:27.659Z,18.93
2019-03-09T03:41:59.705Z,14.53
2019-03-09T03:44:41.579Z,13.67
2019-03-09T03:47:37.598Z,15.90
2019-03-09T03:53:40.389Z,16.10
2019-03-09T03:59:35.851Z,15.00
2019-03-09T04:02:07.470Z,18.13
2019-03-09T04:04:39.733Z,15.17
2019-03-09T04:07:10.409Z,16.33
2019-03-09T04:09:41.456Z,14.67
2019-03-09T04:12:14.048Z,14.07
2019-03-09T04:14:45.675Z,16.70
2019-03-09T04:17:18.862Z,13.60
2019-03-09T04:19:52.098Z,18.73
2019-03-09T04:22:23.429Z,15.10
2019-03-09T04:25:01.570Z,16.80
2019-03-09T04:27:35.827Z,15.30
2019-03-09T04:30:13.997Z,16.60
2019-03-09T04:32:46.489Z,15.17
2019-03-09T04:35:17.242Z,17.00
2019-03-09T04:37:48.244Z,18.87
2019-03-09T04:40:25.187Z,13.17
2019-03-09T04:42:56.845Z,14.77
2019-03-09T04:45:28.968Z,12.23
2019-03-09T04:48:05.397Z,13.63
2019-03-09T04:50:41.663Z,12.50
2019-03-09T04:53:12.405Z,15.30
2019-03-09T04:55:43.831Z,14.30
2019-03-09T04:58:17.342Z,13.77
2019-03-09T05:00:50.819Z,12.40
2019-03-09T05:03:21.943Z,14.17
2019-03-09T05:05:54.991Z,11.73
2019-03-09T05:08:29.775Z,12.47
2019-03-09T05:11:04.465Z,11.50
2019-03-09T05:13:38.784Z,13.83
2019-03-09T05:16:09.922Z,10.90
2019-03-09T05:18:41.909Z,11.97
2019-03-09T05:21:13.033Z,10.87
2019-03-09T05:23:46.378Z,12.93
2019-03-09T05:26:19.621Z,11.73
2019-03-09T05:28:51.671Z,11.07
2019-03-09T05:31:23.729Z,10.30
2019-03-09T05:33:54.671Z,12.40
2019-03-09T05:36:25.552Z,10.47
2019-03-09T05:38:56.719Z,10.30
2019-03-09T05:41:27.975Z,10.60
2019-03-09T05:44:00.749Z,11.33
2019-03-09T05:46:31.334Z,12.03
2019-03-09T05:49:03.881Z,11.97
2019-03-09T05:51:35.540Z,12.90
2019-03-09T05:54:07.532Z,14.40
2019-03-09T05:56:39.199Z,17.93
2019-03-09T05:59:10.371Z,14.00
2019-03-09T06:01:42.767Z,23.70
2019-03-09T06:04:15.521Z,20.30
2019-03-09T06:06:46.817Z,19.90
2019-03-09T06:09:18.779Z,34.40
2019-03-09T06:11:51.565Z,28.93
2019-03-09T06:14:22.974Z,32.53
2019-03-09T06:16:56.407Z,35.07
2019-03-09T06:19:27.264Z,36.97
2019-03-09T06:21:57.658Z,29.70
2019-03-09T06:24:30.443Z,36.67
2019-03-09T06:27:01.380Z,37.27
2019-03-09T06:29:33.290Z,35.43
2019-03-09T06:32:33.311Z,45.37
2019-03-09T06:35:09.273Z,39.60
2019-03-09T06:37:42.780Z,29.87
2019-03-09T06:40:14.815Z,36.93
2019-03-09T06:42:48.662Z,34.23
2019-03-09T06:45:21.104Z,36.77
2019-03-09T06:47:52.486Z,44.03
2019-03-09T06:50:26.712Z,32.47
2019-03-09T06:53:00.033Z,37.07
2019-03-09T06:55:31.591Z,38.67
2019-03-09T06:58:03.844Z,34.67
2019-03-09T07:00:39.467Z,37.00
2019-03-09T07:03:13.799Z,35.97
2019-03-09T07:05:48.397Z,35.50
2019-03-09T07:08:19.870Z,38.97
2019-03-09T07:10:50.708Z,36.73
2019-03-09T07:13:21.426Z,36.63
2019-03-09T07:15:53.277Z,40.90
2019-03-09T07:18:25.338Z,38.23
2019-03-09T07:20:57.116Z,29.03
2019-03-09T07:23:29.706Z,39.20
2019-03-09T07:26:00.198Z,30.00
2019-03-09T07:28:32.537Z,44.50
2019-03-09T07:31:10.927Z,33.83
2019-03-09T07:33:50.179Z,29.40
2019-03-09T07:36:25.880Z,42.60
2019-03-09T07:38:57.041Z,39.03
2019-03-09T07:41:27.751Z,38.40
2019-03-09T07:43:59.436Z,48.80
2019-03-09T07:46:31.007Z,42.03
2019-03-09T07:49:03.267Z,34.50
2019-03-09T07:51:34.280Z,40.43
2019-03-09T07:54:05.643Z,42.67
2019-03-09T07:56:38.751Z,34.67
2019-03-09T07:59:11.737Z,35.70
2019-03-09T08:01:42.966Z,45.93
2019-03-09T08:04:16.342Z,27.53
2019-03-09T08:06:52.416Z,39.37
2019-03-09T08:09:24.628Z,30.37
2019-03-09T08:11:55.800Z,34.57
2019-03-09T08:14:26.894Z,34.33
2019-03-09T08:24:52.962Z,34.23
2019-03-09T08:27:29.399Z,33.53
2019-03-09T08:30:14.894Z,31.20
2019-03-09T08:32:39.520Z,33.23
2019-03-09T08:35:12.557Z,37.30
2019-03-09T08:37:44.230Z,26.37
2019-03-09T08:40:18.968Z,27.73
2019-03-09T08:42:51.975Z,31.03
2019-03-09T08:45:24.099Z,24.93
2019-03-09T08:47:57.454Z,29.03
2019-03-09T08:50:28.844Z,27.13
2019-03-09T08:52:59.857Z,25.50
2019-03-09T08:55:32.625Z,31.00
2019-03-09T08:58:06.414Z,37.97
2019-03-09T09:00:38.361Z,36.63
2019-03-09T09:03:09.682Z,25.23
2019-03-09T09:05:41.139Z,24.60
2019-03-09T09:08:12.047Z,22.43
2019-03-09T09:10:43.776Z,28.33
2019-03-09T09:13:14.866Z,29.03
2019-03-09T09:15:46.438Z,26.73
2019-03-09T09:18:18.348Z,28.37
2019-03-09T09:20:51.213Z,31.17
2019-03-09T09:23:22.096Z,22.87
2019-03-09T09:25:56.428Z,23.73
2019-03-09T09:28:29.352Z,21.33
2019-03-09T09:31:01.384Z,38.57
2019-03-09T09:33:33.300Z,28.97
2019-03-09T09:36:04.738Z,23.87
2019-03-09T09:38:36.234Z,23.10
2019-03-09T09:41:08.576Z,20.00
2019-03-09T09:43:41.915Z,23.30
2019-03-09T09:46:22.796Z,23.07
2019-03-09T09:48:55.388Z,22.80
2019-03-09T09:51:30.398Z,30.40
2019-03-09T09:54:01.360Z,35.63
2019-03-09T09:56:35.451Z,27.50
2019-03-09T09:59:05.848Z,28.70
2019-03-09T10:01:36.263Z,26.53
2019-03-09T10:04:07.575Z,26.97
2019-03-09T10:06:39.154Z,22.60
2019-03-09T10:09:09.895Z,28.77
2019-03-09T10:11:44.083Z,32.67
2019-03-09T10:14:16.720Z,27.43
2019-03-09T10:16:47.411Z,33.70
2019-03-09T10:19:19.462Z,22.83
2019-03-09T10:21:50.370Z,26.50
2019-03-09T10:24:21.669Z,23.47
2019-03-09T10:26:52.390Z,23.47
2019-03-09T10:29:23.390Z,23.23
2019-03-09T10:31:57.847Z,22.87
2019-03-09T10:34:29.362Z,24.23
2019-03-09T10:37:00.202Z,21.97
2019-03-09T10:39:30.893Z,25.23
2019-03-09T10:42:01.707Z,31.97
2019-03-09T10:44:33.657Z,32.50
2019-03-09T10:47:06.128Z,24.97
2019-03-09T10:49:36.884Z,24.23
2019-03-09T10:52:07.579Z,23.53
2019-03-09T10:54:39.657Z,19.07
2019-03-09T10:57:11.696Z,19.53
2019-03-09T10:59:44.146Z,24.23
2019-03-09T11:02:15.203Z,32.30
2019-03-09T11:04:45.648Z,31.07
2019-03-09T11:07:17.955Z,20.23
2019-03-09T11:09:49.049Z,24.83
2019-03-09T11:12:20.067Z,25.03
2019-03-09T11:14:51.427Z,20.63
2019-03-09T11:17:23.421Z,21.50
2019-03-09T11:19:55.898Z,29.77
2019-03-09T11:22:26.014Z,20.33
2019-03-09T11:25:03.405Z,25.03
2019-03-09T11:27:32.847Z,24.47
2019-03-09T11:30:07.446Z,25.17
2019-03-09T11:32:44.406Z,27.17
2019-03-09T11:35:15.319Z,30.80
2019-03-09T11:37:47.469Z,20.63
2019-03-09T11:40:21.708Z,22.03
2019-03-09T11:42:52.128Z,19.43
2019-03-09T11:45:23.110Z,27.73
2019-03-09T11:47:54.052Z,24.67
2019-03-09T11:50:27.626Z,32.50
2019-03-09T11:52:59.477Z,20.67
2019-03-09T11:55:30.313Z,27.30
2019-03-09T11:58:01.080Z,31.33
2019-03-09T12:00:59.940Z,26.10
2019-03-09T12:03:38.406Z,26.20
2019-03-09T12:06:20.303Z,26.13
2019-03-09T12:11:50.851Z,42.00
2019-03-09T12:14:33.156Z,24.33
2019-03-09T12:17:21.073Z,24.00
2019-03-09T12:20:03.140Z,29.13
2019-03-09T12:22:44.132Z,24.83
2019-03-09T12:25:23.942Z,22.37
2019-03-09T12:28:07.506Z,37.50
2019-03-09T12:30:49.506Z,28.87
2019-03-09T12:33:27.114Z,27.43
2019-03-09T12:36:04.287Z,17.20
2019-03-09T12:38:39.084Z,31.87
2019-03-09T12:41:16.206Z,20.90
2019-03-09T12:43:48.422Z,28.93
2019-03-09T12:46:20.510Z,25.20
2019-03-09T12:48:51.737Z,30.87
2019-03-09T12:51:23.939Z,24.37
2019-03-09T12:53:54.462Z,26.73
2019-03-09T12:56:26.160Z,30.57
2019-03-09T12:58:59.333Z,22.47
2019-03-09T13:01:31.381Z,27.47
2019-03-09T13:04:06.460Z,25.63
2019-03-09T13:06:39.935Z,24.40
2019-03-09T13:09:12.035Z,27.20
2019-03-09T13:11:43.186Z,31.27
2019-03-09T13:14:16.601Z,24.80
2019-03-09T13:16:48.701Z,25.87
2019-03-09T13:19:20.314Z,28.40
2019-03-09T13:21:52.262Z,25.93
2019-03-09T13:24:28.715Z,19.57
2019-03-09T13:27:00.643Z,21.90
2019-03-09T13:29:33.712Z,22.97
2019-03-09T13:32:06.519Z,20.27
2019-03-09T13:34:38.660Z,31.90
2019-03-09T13:37:09.648Z,22.67
2019-03-09T13:39:41.233Z,24.03
2019-03-09T13:42:13.610Z,27.80
2019-03-09T13:44:44.634Z,26.20
2019-03-09T13:47:15.977Z,29.97
2019-03-09T13:49:47.009Z,30.83
2019-03-09T13:52:17.859Z,33.67
2019-03-09T13:54:49.015Z,33.97
2019-03-09T13:57:21.598Z,35.83
2019-03-09T13:59:56.565Z,22.73
2019-03-09T14:02:29.583Z,30.07
2019-03-09T14:05:01.618Z,24.73
2019-03-09T14:07:34.833Z,29.97
2019-03-09T14:10:12.901Z,29.67
2019-03-09T14:16:10.829Z,25.57
2019-03-09T14:18:42.976Z,21.60
2019-03-09T14:21:14.208Z,28.37
2019-03-09T14:23:49.404Z,28.00
2019-03-09T14:33:10.031Z,29.40
2019-03-09T14:35:42.710Z,28.53
2019-03-09T14:38:16.489Z,31.40
2019-03-09T14:40:51.497Z,34.40
2019-03-09T14:43:22.608Z,19.00
2019-03-09T14:45:53.232Z,21.73
2019-03-09T14:48:26.059Z,21.60
2019-03-09T14:50:58.138Z,17.07
2019-03-09T14:59:39.711Z,18.90
2019-03-09T15:02:20.451Z,18.63
2019-03-09T15:04:52.257Z,20.63
2019-03-09T15:07:41.801Z,19.77
2019-03-09T15:14:13.152Z,16.10
2019-03-09T15:16:41.632Z,12.23
2019-03-09T15:22:48.100Z,24.10
2019-03-09T15:25:23.876Z,29.07
2019-03-09T15:27:57.195Z,20.07
2019-03-09T15:30:29.941Z,20.83
2019-03-09T15:33:02.828Z,29.60
2019-03-09T15:35:37.895Z,18.90
2019-03-09T15:41:52.211Z,20.73
2019-03-09T15:47:36.721Z,15.63
2019-03-09T15:50:14.679Z,19.13
2019-03-09T15:52:46.342Z,23.60
2019-03-09T15:55:18.581Z,19.13
2019-03-09T15:57:50.368Z,14.20
2019-03-09T16:00:23.994Z,21.27
2019-03-09T16:02:54.578Z,19.90
2019-03-09T16:08:51.226Z,17.40
2019-03-09T16:11:26.270Z,24.60
2019-03-09T16:14:00.054Z,14.40
2019-03-09T16:16:33.504Z,26.73
2019-03-09T16:22:47.369Z,19.30
2019-03-09T16:25:22.962Z,23.67
2019-03-09T16:27:54.726Z,19.70
2019-03-09T16:30:57.020Z,21.40
2019-03-09T16:33:28.880Z,19.10
2019-03-09T16:36:00.424Z,24.10
2019-03-09T16:41:56.628Z,16.30
2019-03-09T16:44:30.009Z,18.13
2019-03-09T16:47:04.350Z,19.67
2019-03-09T16:49:37.101Z,14.07
2019-03-09T16:52:13.167Z,21.40
2019-03-09T16:54:50.087Z,9.93
2019-03-09T16:57:23.985Z,3.00
2019-03-09T17:03:14.145Z,3.10
2019-03-09T17:05:45.792Z,1.63
2019-03-09T17:08:17.812Z,3.00
2019-03-09T17:10:54.032Z,2.97
2019-03-09T17:13:28.387Z,3.90
2019-03-09T17:16:16.143Z,1.77
2019-03-09T17:18:53.180Z,3.03
2019-03-09T17:21:28.870Z,2.33
2019-03-09T17:24:08.097Z,4.73
2019-03-09T17:26:42.306Z,2.67
2019-03-09T17:29:17.516Z,1.63
2019-03-09T17:32:01.643Z,4.87
2019-03-09T17:34:32.513Z,3.83
2019-03-09T17:37:08.090Z,5.17
2019-03-09T17:39:42.852Z,3.93
2019-03-09T17:42:19.338Z,3.20
2019-03-09T17:44:56.701Z,3.30
2019-03-09T17:47:30.714Z,2.47
2019-03-09T17:50:08.530Z,1.93
2019-03-09T17:52:47.641Z,3.23
2019-03-09T17:55:25.899Z,3.57
2019-03-09T17:57:58.346Z,2.77
2019-03-09T18:00:42.393Z,2.33
2019-03-09T18:03:13.506Z,2.85
2019-03-09T18:05:45.934Z,4.80
2019-03-09T18:08:18.132Z,4.13
2019-03-09T18:10:59.272Z,5.28
2019-03-09T18:13:30.957Z,4.30
2019-03-09T18:16:02.528Z,3.58
2019-03-09T18:18:34.297Z,3.47
2019-03-09T18:21:05.685Z,4.10
2019-03-09T18:23:37.435Z,5.40
2019-03-09T18:26:09.906Z,6.75
2019-03-09T18:28:41.605Z,4.00
2019-03-09T18:31:13.938Z,3.42
2019-03-09T18:33:45.320Z,2.95
2019-03-09T18:36:19.246Z,4.72
2019-03-09T18:39:08.017Z,2.37
2019-03-09T18:41:39.884Z,3.77
2019-03-09T18:44:12.463Z,4.72
2019-03-09T18:46:45.023Z,5.17
2019-03-09T18:49:17.941Z,9.90
2019-03-09T18:51:52.180Z,5.30
2019-03-09T18:54:24.151Z,7.22
2019-03-09T18:56:56.303Z,6.60
2019-03-09T18:59:28.257Z,6.90
2019-03-09T19:02:00.349Z,7.08
2019-03-09T19:04:31.362Z,7.72
2019-03-09T19:07:02.260Z,5.63
2019-03-09T19:09:34.119Z,6.80
2019-03-09T19:12:07.105Z,6.65
2019-03-09T19:14:38.827Z,5.00
2019-03-09T19:17:13.044Z,16.57
2019-03-09T19:19:44.314Z,8.80
2019-03-09T19:22:16.024Z,10.03
2019-03-09T19:24:48.833Z,11.03
2019-03-09T19:27:21.564Z,12.27
2019-03-09T19:29:53.452Z,8.35
2019-03-09T19:32:25.793Z,5.53
2019-03-09T19:34:58.333Z,9.13
2019-03-09T19:37:30.015Z,8.53
2019-03-09T19:40:02.231Z,14.57
2019-03-09T19:42:34.247Z,10.68
2019-03-09T19:45:10.760Z,13.40
2019-03-09T19:47:42.556Z,13.40
2019-03-09T19:50:19.471Z,9.75
2019-03-09T19:52:53.744Z,11.33
2019-03-09T19:55:24.448Z,10.33
2019-03-09T19:57:57.655Z,10.77
2019-03-09T20:00:29.879Z,12.27
2019-03-09T20:03:03.548Z,7.80
2019-03-09T20:05:36.314Z,8.70
2019-03-09T20:08:07.769Z,10.03
2019-03-09T20:10:41.529Z,7.73
2019-03-09T20:13:14.148Z,12.93
2019-03-09T20:15:47.760Z,10.00
2019-03-09T20:18:19.854Z,8.58
2019-03-09T20:20:52.522Z,17.83
2019-03-09T20:23:24.478Z,12.00
2019-03-09T20:25:57.368Z,13.68
2019-03-09T20:28:30.093Z,18.53
2019-03-09T20:31:03.444Z,14.43
2019-03-09T20:33:35.302Z,14.10
2019-03-09T20:36:06.712Z,17.37
2019-03-09T20:38:38.518Z,13.13
2019-03-09T20:41:10.871Z,13.80
2019-03-09T20:43:42.648Z,17.65
2019-03-09T20:46:14.475Z,11.00
2019-03-09T20:48:46.760Z,13.37
2019-03-09T20:51:18.785Z,12.93
2019-03-09T20:53:50.118Z,13.57
2019-03-09T20:56:22.186Z,12.73
2019-03-09T20:58:55.095Z,11.73
2019-03-09T21:01:28.249Z,13.57
2019-03-09T21:04:01.240Z,11.63
2019-03-09T21:06:34.512Z,9.07
2019-03-09T21:09:08.051Z,8.23
2019-03-09T21:11:39.522Z,11.07
2019-03-09T21:14:11.860Z,7.43
2019-03-09T21:16:45.000Z,12.30
2019-03-09T21:19:17.853Z,15.03
2019-03-09T21:21:49.365Z,11.30
2019-03-09T21:24:22.194Z,10.33
2019-03-09T21:26:55.026Z,9.93
2019-03-09T21:29:27.265Z,7.70
2019-03-09T21:31:58.553Z,12.13
2019-03-09T21:34:31.873Z,9.03
2019-03-09T21:37:04.879Z,14.47
2019-03-09T21:39:36.016Z,14.13
2019-03-09T21:42:10.885Z,12.83
2019-03-09T21:44:45.579Z,13.67
2019-03-09T21:47:17.897Z,15.40
2019-03-09T21:49:49.736Z,15.13
2019-03-09T21:52:21.125Z,12.97
2019-03-09T21:54:55.752Z,11.00
2019-03-09T21:57:29.550Z,12.30
2019-03-09T22:00:01.124Z,21.47
2019-03-09T22:02:32.862Z,18.15
2019-03-09T22:05:08.325Z,20.47
2019-03-09T22:07:39.822Z,19.20
2019-03-09T22:10:12.088Z,24.63
2019-03-09T22:12:43.640Z,24.37
2019-03-09T22:15:17.198Z,22.60
2019-03-09T22:17:49.203Z,18.13
2019-03-09T22:20:22.187Z,19.93
2019-03-09T22:22:54.012Z,24.10
2019-03-09T22:25:26.022Z,26.60
2019-03-09T22:27:57.907Z,21.27
2019-03-09T22:30:29.847Z,25.40
2019-03-09T22:33:04.473Z,21.33
2019-03-09T22:35:35.463Z,29.00
2019-03-09T22:38:07.275Z,20.73
2019-03-09T22:40:38.279Z,21.03
2019-03-09T22:43:10.550Z,28.70
2019-03-09T22:45:41.999Z,23.07
2019-03-09T22:48:13.676Z,33.53
2019-03-09T22:50:45.365Z,33.13
2019-03-09T22:53:16.554Z,15.87
2019-03-09T22:55:48.834Z,27.50
2019-03-09T22:58:20.754Z,27.90
2019-03-09T23:00:53.531Z,23.83
2019-03-09T23:03:24.693Z,20.87
2019-03-09T23:05:57.787Z,20.40
2019-03-09T23:08:30.207Z,25.60
2019-03-09T23:11:02.006Z,23.73
2019-03-09T23:13:34.354Z,18.57
2019-03-09T23:16:06.800Z,26.50
2019-03-09T23:18:39.122Z,22.37
2019-03-09T23:21:10.919Z,17.40
2019-03-09T23:23:43.134Z,19.83
2019-03-09T23:26:15.540Z,18.30
2019-03-09T23:28:48.355Z,26.27
2019-03-09T23:31:21.392Z,23.50
2019-03-09T23:33:52.925Z,22.30
2019-03-09T23:36:26.037Z,24.97
2019-03-09T23:38:59.282Z,20.87
2019-03-09T23:41:31.753Z,19.83
2019-03-09T23:44:03.369Z,27.07
2019-03-09T23:46:36.592Z,28.00
2019-03-09T23:49:09.315Z,20.97
2019-03-09T23:51:40.984Z,26.87
2019-03-09T23:54:13.434Z,23.23
2019-03-09T23:56:45.178Z,19.93
2019-03-09T23:59:17.056Z,30.03
